createdAt,value
2023-02-03T00:01:24.772Z,5.97
2023-02-03T00:03:51.165Z,10.18
2023-02-03T00:06:17.612Z,10.45
2023-02-03T00:08:44.315Z,7.82
2023-02-03T00:11:10.873Z,7.33
2023-02-03T00:13:37.289Z,7.05
2023-02-03T00:16:06.471Z,9.20
2023-02-03T00:18:33.669Z,10.98
2023-02-03T00:21:00.130Z,8.30
2023-02-03T00:23:29.997Z,7.10
2023-02-03T00:25:56.388Z,8.70
2023-02-03T00:28:22.789Z,10.18
2023-02-03T00:30:49.537Z,10.55
2023-02-03T00:33:15.881Z,5.90
2023-02-03T00:35:42.209Z,6.97
2023-02-03T00:38:08.538Z,7.72
2023-02-03T00:40:35.125Z,6.13
2023-02-03T00:43:01.474Z,10.60
2023-02-03T00:45:27.822Z,5.22
2023-02-03T00:47:54.156Z,6.57
2023-02-03T00:50:20.541Z,7.43
2023-02-03T00:52:46.866Z,5.88
2023-02-03T00:55:13.249Z,10.20
2023-02-03T00:57:39.590Z,6.50
2023-02-03T01:00:06.886Z,5.30
2023-02-03T01:02:33.327Z,8.70
2023-02-03T01:04:59.684Z,7.78
2023-02-03T01:07:26.161Z,10.38
2023-02-03T01:09:52.541Z,7.15
2023-02-03T01:12:18.898Z,5.77
2023-02-03T01:14:45.264Z,5.30
2023-02-03T01:17:11.615Z,9.10
2023-02-03T01:19:37.954Z,11.40
2023-02-03T01:22:04.310Z,10.40
2023-02-03T01:24:30.850Z,12.17
2023-02-03T01:26:57.273Z,11.35
2023-02-03T01:29:24.632Z,9.10
2023-02-03T01:31:51.188Z,6.22
2023-02-03T01:34:18.452Z,6.25
2023-02-03T01:36:46.613Z,5.60
2023-02-03T01:39:13.148Z,10.70
2023-02-03T01:41:40.482Z,13.63
2023-02-03T01:44:34.680Z,3.25
2023-02-03T01:47:02.998Z,6.95
2023-02-03T01:49:36.596Z,5.80
2023-02-03T01:52:04.828Z,6.53
2023-02-03T01:54:41.241Z,7.10
2023-02-03T01:57:16.528Z,6.22
2023-02-03T01:59:43.575Z,8.90
2023-02-03T02:02:12.364Z,10.70
2023-02-03T02:05:04.725Z,10.48
2023-02-03T02:07:32.408Z,6.07
2023-02-03T02:09:59.876Z,5.03
2023-02-03T02:12:26.236Z,4.80
2023-02-03T02:14:52.867Z,6.27
2023-02-03T02:17:41.273Z,6.18
2023-02-03T02:20:29.023Z,5.15
2023-02-03T02:23:18.213Z,6.93
2023-02-03T02:25:47.470Z,7.47
2023-02-03T02:28:38.224Z,6.23
2023-02-03T02:31:34.064Z,5.28
2023-02-03T02:34:27.753Z,3.97
2023-02-03T02:37:33.053Z,4.63
2023-02-03T02:40:36.665Z,4.40
2023-02-03T02:43:34.637Z,7.13
2023-02-03T02:46:10.838Z,7.57
2023-02-03T02:49:01.078Z,3.95
2023-02-03T02:51:30.007Z,6.10
2023-02-03T02:54:01.686Z,4.43
2023-02-03T02:56:29.275Z,6.67
2023-02-03T02:58:59.495Z,4.35
2023-02-03T03:01:25.893Z,5.50
2023-02-03T03:03:52.825Z,4.82
2023-02-03T03:06:25.231Z,3.03
2023-02-03T03:09:00.212Z,7.03
2023-02-03T03:11:31.145Z,7.25
2023-02-03T03:13:58.061Z,6.30
2023-02-03T03:16:27.578Z,6.45
2023-02-03T03:19:01.370Z,4.05
2023-02-03T03:21:40.559Z,7.07
2023-02-03T03:24:16.457Z,3.85
2023-02-03T03:26:52.019Z,5.75
2023-02-03T03:29:24.695Z,4.55
2023-02-03T03:31:51.144Z,5.28
2023-02-03T03:34:18.611Z,3.53
2023-02-03T03:36:51.038Z,5.97
2023-02-03T03:39:35.794Z,3.85
2023-02-03T03:42:10.413Z,7.30
2023-02-03T03:44:43.717Z,6.18
2023-02-03T03:47:21.799Z,5.70
2023-02-03T03:49:50.504Z,7.05
2023-02-03T03:52:24.241Z,4.57
2023-02-03T03:54:53.728Z,3.47
2023-02-03T03:57:46.416Z,8.90
2023-02-03T04:00:17.442Z,6.60
2023-02-03T04:02:48.865Z,5.35
2023-02-03T04:05:15.678Z,5.35
2023-02-03T04:07:44.292Z,4.57
2023-02-03T04:10:35.310Z,5.43
2023-02-03T04:13:01.879Z,2.07
2023-02-03T04:15:28.456Z,5.55
2023-02-03T04:17:56.933Z,4.03
2023-02-03T04:20:24.722Z,3.10
2023-02-03T04:22:51.306Z,5.13
2023-02-03T04:25:17.663Z,4.60
2023-02-03T04:27:44.221Z,5.03
2023-02-03T04:30:11.693Z,4.10
2023-02-03T04:32:38.151Z,4.82
2023-02-03T04:35:05.845Z,2.90
2023-02-03T04:37:32.841Z,3.80
2023-02-03T04:39:59.323Z,2.58
2023-02-03T04:42:25.977Z,3.13
2023-02-03T04:44:52.577Z,4.35
2023-02-03T04:47:19.446Z,3.97
2023-02-03T04:49:46.200Z,5.53
2023-02-03T04:52:13.108Z,4.82
2023-02-03T04:54:39.712Z,7.40
2023-02-03T04:57:06.884Z,4.00
2023-02-03T04:59:33.272Z,3.85
2023-02-03T05:02:02.629Z,4.20
2023-02-03T05:04:29.151Z,7.15
2023-02-03T05:06:56.685Z,3.42
2023-02-03T05:09:24.665Z,2.53
2023-02-03T05:11:51.286Z,4.38
2023-02-03T05:14:17.799Z,2.83
2023-02-03T05:16:44.452Z,5.30
2023-02-03T05:19:11.107Z,4.40
2023-02-03T05:21:37.948Z,5.95
2023-02-03T05:24:07.697Z,4.30
2023-02-03T05:26:35.157Z,7.13
2023-02-03T05:29:02.029Z,3.95
2023-02-03T05:31:28.485Z,7.18
2023-02-03T05:33:54.991Z,2.92
2023-02-03T05:36:21.521Z,2.33
2023-02-03T05:38:47.865Z,3.83
2023-02-03T05:41:32.889Z,4.40
2023-02-03T05:43:59.368Z,6.13
2023-02-03T05:46:26.320Z,5.28
2023-02-03T05:48:52.785Z,7.85
2023-02-03T05:51:19.177Z,5.80
2023-02-03T05:53:45.601Z,4.38
2023-02-03T05:56:12.144Z,7.32
2023-02-03T05:58:38.676Z,10.20
2023-02-03T06:01:05.078Z,5.43
2023-02-03T06:03:31.491Z,6.00
2023-02-03T06:05:58.993Z,6.22
2023-02-03T06:08:28.448Z,5.82
2023-02-03T06:11:00.950Z,8.18
2023-02-03T06:13:27.991Z,3.67
2023-02-03T06:15:54.755Z,6.50
2023-02-03T06:18:21.205Z,4.78
2023-02-03T06:20:47.923Z,3.72
2023-02-03T06:23:14.351Z,6.53
2023-02-03T06:25:40.743Z,6.33
2023-02-03T06:28:07.275Z,8.07
2023-02-03T06:30:33.800Z,5.93
2023-02-03T06:33:00.370Z,2.88
2023-02-03T06:35:27.025Z,4.07
2023-02-03T06:37:53.552Z,4.38
2023-02-03T06:40:20.197Z,5.15
2023-02-03T06:42:47.222Z,7.50
2023-02-03T06:45:14.395Z,7.00
2023-02-03T06:47:41.996Z,6.38
2023-02-03T06:50:10.677Z,7.88
2023-02-03T06:52:37.229Z,3.80
2023-02-03T06:55:05.468Z,3.37
2023-02-03T06:57:32.322Z,7.75
2023-02-03T06:59:58.834Z,10.75
2023-02-03T07:02:25.458Z,4.13
2023-02-03T07:04:52.083Z,6.53
2023-02-03T07:07:18.488Z,5.73
2023-02-03T07:09:44.846Z,7.22
2023-02-03T07:12:11.294Z,6.63
2023-02-03T07:14:39.320Z,3.20
2023-02-03T07:17:06.976Z,9.38
2023-02-03T07:19:33.632Z,4.60
2023-02-03T07:22:00.133Z,5.45
2023-02-03T07:24:26.719Z,6.20
2023-02-03T07:26:53.282Z,7.50
2023-02-03T07:29:19.846Z,7.78
2023-02-03T07:31:46.410Z,5.57
2023-02-03T07:34:12.938Z,6.57
2023-02-03T07:36:39.393Z,7.68
2023-02-03T07:39:05.763Z,6.57
2023-02-03T07:41:32.270Z,5.00
2023-02-03T07:43:58.692Z,10.87
2023-02-03T07:46:25.164Z,7.65
2023-02-03T07:48:51.714Z,3.03
2023-02-03T07:51:18.085Z,5.93
2023-02-03T07:53:45.216Z,8.20
2023-02-03T07:56:12.219Z,5.47
2023-02-03T07:58:38.852Z,8.88
2023-02-03T08:01:15.764Z,5.60
2023-02-03T08:03:42.893Z,5.13
2023-02-03T08:06:09.686Z,3.63
2023-02-03T08:08:36.461Z,4.20
2023-02-03T08:11:02.993Z,8.63
2023-02-03T08:13:29.399Z,6.60
2023-02-03T08:15:55.965Z,5.43
2023-02-03T08:18:22.558Z,8.68
2023-02-03T08:20:49.757Z,8.10
2023-02-03T08:23:16.197Z,6.72
2023-02-03T08:25:42.670Z,6.78
2023-02-03T08:28:09.153Z,4.70
2023-02-03T08:30:35.951Z,5.22
2023-02-03T08:33:02.434Z,4.57
2023-02-03T08:35:29.144Z,5.10
2023-02-03T08:37:55.677Z,3.63
2023-02-03T08:40:22.186Z,8.00
2023-02-03T08:42:50.024Z,9.40
2023-02-03T08:45:16.380Z,8.23
2023-02-03T08:47:42.840Z,10.52
2023-02-03T08:50:10.733Z,4.88
2023-02-03T08:52:37.656Z,6.10
2023-02-03T08:55:04.356Z,7.03
2023-02-03T08:57:35.773Z,4.93
2023-02-03T09:00:05.411Z,9.20
2023-02-03T09:02:31.943Z,9.10
2023-02-03T09:04:58.787Z,5.60
2023-02-03T09:07:25.387Z,8.52
2023-02-03T09:09:51.992Z,6.90
2023-02-03T09:12:18.527Z,4.07
2023-02-03T09:14:46.031Z,6.18
2023-02-03T09:17:12.504Z,7.85
2023-02-03T09:19:38.954Z,7.07
2023-02-03T09:22:05.672Z,8.60
2023-02-03T09:24:32.289Z,6.60
2023-02-03T09:27:00.970Z,5.88
2023-02-03T09:29:27.890Z,4.93
2023-02-03T09:31:54.394Z,6.68
2023-02-03T09:34:21.974Z,9.37
2023-02-03T09:36:48.731Z,4.82
2023-02-03T09:39:15.815Z,8.30
2023-02-03T09:41:54.267Z,10.63
2023-02-03T09:44:42.885Z,8.27
2023-02-03T09:47:37.529Z,9.33
2023-02-03T09:50:34.592Z,9.43
2023-02-03T09:53:10.457Z,6.03
2023-02-03T09:55:41.212Z,8.63
2023-02-03T09:58:16.206Z,10.38
2023-02-03T10:01:00.028Z,6.00
2023-02-03T10:03:46.110Z,4.50
2023-02-03T10:06:39.293Z,5.47
2023-02-03T10:09:26.304Z,7.15
2023-02-03T10:12:17.213Z,9.00
2023-02-03T10:14:55.721Z,6.57
2023-02-03T10:17:30.534Z,6.82
2023-02-03T10:20:16.497Z,5.25
2023-02-03T10:22:50.774Z,5.35
2023-02-03T10:25:28.010Z,9.23
2023-02-03T10:27:59.963Z,10.30
2023-02-03T10:30:32.011Z,6.45
2023-02-03T10:33:10.807Z,6.13
2023-02-03T10:35:50.039Z,3.63
2023-02-03T10:38:55.773Z,6.40
2023-02-03T10:41:23.123Z,4.73
2023-02-03T10:43:52.066Z,4.10
2023-02-03T10:46:21.656Z,6.20
2023-02-03T10:48:49.298Z,9.82
2023-02-03T10:51:23.163Z,4.38
2023-02-03T10:53:53.367Z,6.13
2023-02-03T10:56:23.914Z,4.72
2023-02-03T10:58:56.620Z,6.53
2023-02-03T11:01:47.842Z,6.05
2023-02-03T11:04:29.623Z,8.23
2023-02-03T11:06:58.829Z,4.53
2023-02-03T11:09:33.503Z,6.05
2023-02-03T11:12:12.166Z,6.00
2023-02-03T11:14:43.113Z,7.80
2023-02-03T11:17:16.177Z,5.95
2023-02-03T11:19:46.413Z,5.33
2023-02-03T11:22:27.107Z,11.13
2023-02-03T11:24:54.184Z,4.18
2023-02-03T11:27:22.695Z,6.72
2023-02-03T11:29:54.780Z,5.80
2023-02-03T11:32:35.148Z,7.33
2023-02-03T11:35:03.541Z,4.35
2023-02-03T11:37:42.025Z,6.10
2023-02-03T11:40:08.765Z,8.55
2023-02-03T11:42:37.666Z,7.18
2023-02-03T11:45:30.416Z,4.30
2023-02-03T11:48:02.607Z,6.63
2023-02-03T11:50:49.414Z,3.22
2023-02-03T11:53:55.182Z,9.10
2023-02-03T11:56:46.638Z,4.22
2023-02-03T11:59:47.029Z,7.43
2023-02-03T12:02:37.508Z,8.57
2023-02-03T12:05:22.036Z,4.85
2023-02-03T12:08:39.156Z,8.90
2023-02-03T12:11:25.860Z,9.10
2023-02-03T12:14:05.659Z,3.60
2023-02-03T12:17:04.085Z,5.30
2023-02-03T12:19:54.705Z,3.70
2023-02-03T12:22:56.153Z,7.13
2023-02-03T12:25:48.397Z,6.40
2023-02-03T12:28:47.941Z,7.47
2023-02-03T12:31:51.337Z,5.60
2023-02-03T12:34:24.939Z,10.50
2023-02-03T12:36:56.818Z,6.10
2023-02-03T12:39:31.007Z,7.70
2023-02-03T12:42:15.212Z,7.77
2023-02-03T12:44:52.521Z,7.30
2023-02-03T12:47:35.669Z,6.88
2023-02-03T12:50:27.319Z,7.47
2023-02-03T12:53:02.144Z,6.78
2023-02-03T12:55:36.465Z,10.17
2023-02-03T12:58:41.033Z,6.30
2023-02-03T13:01:23.305Z,6.43
2023-02-03T13:04:06.080Z,10.20
2023-02-03T13:06:49.357Z,9.85
2023-02-03T13:09:36.045Z,7.83
2023-02-03T13:12:14.945Z,9.13
2023-02-03T13:14:46.952Z,9.00
2023-02-03T13:17:23.519Z,5.95
2023-02-03T13:19:54.933Z,10.73
2023-02-03T13:22:26.701Z,8.20
2023-02-03T13:24:58.434Z,8.20
2023-02-03T13:27:31.930Z,9.25
2023-02-03T13:30:07.314Z,11.82
2023-02-03T13:32:37.521Z,14.00
2023-02-03T13:35:12.963Z,11.33
2023-02-03T13:37:56.002Z,14.07
2023-02-03T13:41:00.928Z,5.60
2023-02-03T13:43:41.505Z,12.25
2023-02-03T13:46:29.446Z,12.95
2023-02-03T13:48:59.649Z,13.33
2023-02-03T13:51:34.117Z,12.85
2023-02-03T13:54:04.035Z,18.20
2023-02-03T13:56:31.630Z,14.10
2023-02-03T13:59:13.534Z,13.02
2023-02-03T14:01:41.225Z,9.87
2023-02-03T14:04:29.277Z,11.45
2023-02-03T14:07:01.594Z,11.00
2023-02-03T14:09:30.864Z,15.95
2023-02-03T14:12:29.405Z,14.82
2023-02-03T14:15:03.951Z,10.73
2023-02-03T14:17:36.371Z,15.90
2023-02-03T14:20:23.865Z,17.52
2023-02-03T14:22:53.146Z,11.55
2023-02-03T14:25:21.118Z,20.40
2023-02-03T14:27:58.547Z,11.07
2023-02-03T14:30:25.265Z,15.27
2023-02-03T14:32:54.006Z,13.02
2023-02-03T14:35:25.292Z,13.95
2023-02-03T14:37:54.332Z,14.23
2023-02-03T14:40:54.570Z,12.30
2023-02-03T14:43:37.723Z,14.10
2023-02-03T14:46:14.484Z,17.55
2023-02-03T14:49:26.286Z,15.40
2023-02-03T14:52:14.664Z,15.98
2023-02-03T14:54:59.395Z,18.60
2023-02-03T14:57:51.025Z,13.40
2023-02-03T15:00:20.321Z,22.45
2023-02-03T15:03:11.593Z,20.73
2023-02-03T15:05:45.305Z,16.55
2023-02-03T15:08:30.603Z,10.73
2023-02-03T15:10:57.438Z,18.45
2023-02-03T15:13:29.529Z,17.75
2023-02-03T15:15:58.858Z,17.58
2023-02-03T15:18:37.515Z,12.15
2023-02-03T15:21:04.570Z,12.43
2023-02-03T15:23:41.525Z,18.25
2023-02-03T15:26:17.555Z,13.80
2023-02-03T15:28:44.517Z,16.88
2023-02-03T15:31:44.931Z,17.27
2023-02-03T15:34:18.778Z,21.03
2023-02-03T15:36:49.868Z,16.65
2023-02-03T15:39:52.678Z,17.27
2023-02-03T15:42:31.311Z,14.88
2023-02-03T15:45:09.218Z,16.02
2023-02-03T15:47:41.407Z,12.63
2023-02-03T15:50:46.986Z,11.95
2023-02-03T15:53:41.122Z,15.90
2023-02-03T15:56:21.508Z,11.70
2023-02-03T15:58:49.424Z,16.48
2023-02-03T16:01:21.081Z,11.33
2023-02-03T16:03:52.584Z,13.20
2023-02-03T16:06:25.633Z,9.60
2023-02-03T16:08:52.632Z,12.65
2023-02-03T16:11:27.095Z,12.90
2023-02-03T16:13:55.618Z,19.20
2023-02-03T16:16:22.085Z,16.30
2023-02-03T16:18:57.881Z,14.27
2023-02-03T16:21:31.016Z,13.65
2023-02-03T16:23:58.508Z,19.88
2023-02-03T16:26:27.018Z,14.83
2023-02-03T16:29:27.548Z,15.20
2023-02-03T16:32:13.028Z,16.38
2023-02-03T16:34:58.172Z,16.48
2023-02-03T16:37:47.853Z,16.15
2023-02-03T16:40:37.970Z,10.67
2023-02-03T16:43:24.422Z,14.18
2023-02-03T16:46:14.115Z,11.90
2023-02-03T16:48:59.187Z,14.45
2023-02-03T16:51:29.309Z,18.27
2023-02-03T16:53:55.693Z,20.67
2023-02-03T16:56:22.082Z,15.05
2023-02-03T16:58:48.729Z,17.17
2023-02-03T17:01:15.189Z,16.08
2023-02-03T17:03:41.892Z,10.30
2023-02-03T17:06:10.724Z,16.13
2023-02-03T17:08:38.850Z,14.43
2023-02-03T17:11:15.447Z,16.23
2023-02-03T17:13:42.713Z,12.00
2023-02-03T17:16:12.242Z,14.05
2023-02-03T17:18:39.645Z,15.07
2023-02-03T17:21:09.940Z,12.65
2023-02-03T17:23:36.968Z,16.13
2023-02-03T17:26:04.058Z,13.95
2023-02-03T17:28:30.754Z,14.48
2023-02-03T17:31:01.330Z,20.20
2023-02-03T17:33:28.887Z,20.95
2023-02-03T17:36:12.203Z,11.65
2023-02-03T17:55:07.872Z,14.43
2023-02-03T17:57:37.368Z,19.90
2023-02-03T18:00:05.404Z,18.10
2023-02-03T18:02:32.116Z,10.65
2023-02-03T18:04:58.702Z,12.73
2023-02-03T18:07:25.111Z,13.25
2023-02-03T18:09:51.607Z,11.93
2023-02-03T18:12:18.229Z,14.85
2023-02-03T18:14:44.616Z,12.30
2023-02-03T18:17:11.106Z,12.98
2023-02-03T18:19:38.248Z,13.10
2023-02-03T18:22:04.980Z,15.73
2023-02-03T18:24:31.692Z,14.48
2023-02-03T18:27:00.322Z,18.92
2023-02-03T18:29:28.475Z,16.60
2023-02-03T18:31:54.946Z,18.13
2023-02-03T18:34:21.478Z,13.13
2023-02-03T18:36:47.912Z,15.18
2023-02-03T18:39:15.083Z,12.27
2023-02-03T18:41:41.682Z,12.60
2023-02-03T18:44:08.293Z,18.08
2023-02-03T18:46:34.841Z,15.90
2023-02-03T18:49:01.309Z,17.17
2023-02-03T18:51:28.173Z,18.70
2023-02-03T18:53:59.130Z,12.30
2023-02-03T18:56:28.117Z,15.48
2023-02-03T18:58:55.063Z,15.47
2023-02-03T19:01:25.855Z,14.75
2023-02-03T19:03:53.628Z,15.93
2023-02-03T19:06:20.186Z,14.75
2023-02-03T19:08:47.080Z,19.92
2023-02-03T19:11:14.559Z,18.20
2023-02-03T19:13:41.710Z,17.25
2023-02-03T19:16:09.150Z,11.13
2023-02-03T19:18:36.140Z,18.90
2023-02-03T19:21:02.675Z,18.15
2023-02-03T19:23:29.386Z,13.70
2023-02-03T19:25:56.226Z,20.77
2023-02-03T19:28:30.501Z,14.05
2023-02-03T19:31:17.784Z,16.95
2023-02-03T19:33:44.599Z,17.05
2023-02-03T19:36:11.878Z,18.30
2023-02-03T19:38:38.367Z,17.25
2023-02-03T19:41:05.279Z,16.15
2023-02-03T19:43:31.967Z,11.75
2023-02-03T19:45:59.060Z,19.52
2023-02-03T19:48:25.847Z,10.67
2023-02-03T19:50:52.330Z,17.23
2023-02-03T19:53:18.943Z,17.35
2023-02-03T19:55:46.418Z,15.82
2023-02-03T19:58:14.194Z,15.48
2023-02-03T20:00:41.691Z,19.00
2023-02-03T20:03:08.568Z,20.08
2023-02-03T20:05:36.020Z,17.58
2023-02-03T20:08:02.918Z,15.13
2023-02-03T20:10:29.787Z,15.63
2023-02-03T20:12:56.390Z,15.37
2023-02-03T20:15:22.830Z,19.98
2023-02-03T20:17:49.309Z,19.33
2023-02-03T20:20:19.710Z,13.43
2023-02-03T20:22:47.100Z,12.40
2023-02-03T20:25:13.607Z,15.03
2023-02-03T20:27:40.106Z,16.75
2023-02-03T20:30:07.026Z,19.75
2023-02-03T20:32:33.895Z,17.33
2023-02-03T20:35:00.538Z,13.43
2023-02-03T20:37:27.122Z,21.63
2023-02-03T20:39:53.492Z,15.30
2023-02-03T20:42:19.874Z,17.52
2023-02-03T20:44:46.309Z,19.00
2023-02-03T20:47:17.159Z,11.35
2023-02-03T20:49:43.563Z,18.67
2023-02-03T20:52:14.749Z,10.57
2023-02-03T20:54:41.694Z,15.25
2023-02-03T20:57:17.277Z,15.90
2023-02-03T20:59:44.899Z,14.85
2023-02-03T21:02:23.097Z,22.17
2023-02-03T21:05:00.318Z,17.98
2023-02-03T21:07:30.523Z,17.75
2023-02-03T21:09:59.031Z,16.50
2023-02-03T21:12:28.135Z,22.13
2023-02-03T21:14:55.202Z,21.23
2023-02-03T21:17:21.641Z,17.42
2023-02-03T21:19:48.707Z,21.50
2023-02-03T21:22:26.659Z,15.00
2023-02-03T21:24:57.336Z,16.05
2023-02-03T21:27:28.875Z,23.20
2023-02-03T21:29:57.245Z,12.63
2023-02-03T21:32:26.113Z,15.00
2023-02-03T21:34:52.804Z,15.07
2023-02-03T21:37:41.401Z,16.20
2023-02-03T21:40:24.032Z,15.30
2023-02-03T21:42:51.769Z,15.48
2023-02-03T21:45:19.235Z,14.82
2023-02-03T21:47:48.104Z,11.10
2023-02-03T21:50:32.010Z,12.93
2023-02-03T21:53:07.587Z,11.27
2023-02-03T21:55:38.203Z,11.45
2023-02-03T21:58:21.448Z,16.77
2023-02-03T22:00:48.647Z,7.82
2023-02-03T22:03:19.122Z,13.77
2023-02-03T22:05:46.679Z,10.77
2023-02-03T22:08:23.109Z,14.15
2023-02-03T22:10:50.076Z,14.52
2023-02-03T22:13:17.604Z,15.60
2023-02-03T22:15:44.069Z,15.02
2023-02-03T22:18:10.641Z,15.50
2023-02-03T22:20:36.993Z,11.65
2023-02-03T22:23:03.469Z,13.73
2023-02-03T22:25:29.838Z,14.60
2023-02-03T22:27:56.207Z,12.25
2023-02-03T22:30:22.764Z,15.60
2023-02-03T22:32:49.152Z,15.65
2023-02-03T22:35:15.802Z,12.93
2023-02-03T22:37:42.334Z,12.52
2023-02-03T22:40:10.075Z,13.73
2023-02-03T22:42:36.702Z,13.63
2023-02-03T22:45:03.299Z,14.68
2023-02-03T22:47:29.677Z,10.98
2023-02-03T22:49:59.351Z,15.68
2023-02-03T22:52:25.911Z,13.30
2023-02-03T22:54:52.383Z,14.13
2023-02-03T22:57:18.845Z,16.55
2023-02-03T22:59:45.335Z,14.02
2023-02-03T23:02:11.714Z,15.15
2023-02-03T23:04:38.301Z,11.88
2023-02-03T23:07:05.028Z,13.73
2023-02-03T23:09:31.523Z,13.30
2023-02-03T23:11:58.080Z,13.43
2023-02-03T23:14:24.513Z,13.18
2023-02-03T23:16:51.118Z,22.30
2023-02-03T23:19:17.616Z,15.00
2023-02-03T23:21:44.034Z,13.75
2023-02-03T23:24:10.520Z,7.22
2023-02-03T23:26:37.090Z,10.35
2023-02-03T23:29:03.758Z,14.35
2023-02-03T23:31:30.418Z,12.40
2023-02-03T23:34:15.485Z,12.23
2023-02-03T23:36:41.959Z,12.13
2023-02-03T23:39:08.449Z,12.30
2023-02-03T23:41:34.874Z,7.88
2023-02-03T23:44:01.277Z,8.80
2023-02-03T23:46:27.803Z,11.70
2023-02-03T23:48:54.332Z,11.90
2023-02-03T23:51:20.927Z,14.32
2023-02-03T23:53:47.495Z,10.85
2023-02-03T23:56:13.926Z,11.70
2023-02-03T23:58:40.394Z,12.57
